createdAt,value
2023-04-30T00:00:38.307Z,14.03
2023-04-30T00:03:04.996Z,13.30
2023-04-30T00:05:32.030Z,13.83
2023-04-30T00:07:58.500Z,14.00
2023-04-30T00:10:24.928Z,14.33
2023-04-30T00:12:51.343Z,12.90
2023-04-30T00:15:17.858Z,12.57
2023-04-30T00:17:44.280Z,12.97
2023-04-30T00:20:11.607Z,13.97
2023-04-30T00:22:38.975Z,12.80
2023-04-30T00:25:05.563Z,12.23
2023-04-30T00:27:32.014Z,14.00
2023-04-30T00:29:58.759Z,13.80
2023-04-30T00:32:25.443Z,14.00
2023-04-30T00:34:52.162Z,14.00
2023-04-30T00:37:19.418Z,14.23
2023-04-30T00:39:45.958Z,15.07
2023-04-30T00:42:12.480Z,14.13
2023-04-30T00:44:38.962Z,14.23
2023-04-30T00:47:05.645Z,14.27
2023-04-30T00:49:32.127Z,14.47
2023-04-30T00:51:58.620Z,14.70
2023-04-30T00:54:25.385Z,14.90
2023-04-30T00:56:52.195Z,15.37
2023-04-30T00:59:18.845Z,14.53
2023-04-30T01:01:46.008Z,13.80
2023-04-30T01:04:12.965Z,14.33
2023-04-30T01:06:39.790Z,14.20
2023-04-30T01:09:06.890Z,15.10
2023-04-30T01:11:51.385Z,14.97
2023-04-30T01:14:27.644Z,15.33
2023-04-30T01:17:08.593Z,14.43
2023-04-30T01:19:43.034Z,15.00
2023-04-30T01:22:42.507Z,14.70
2023-04-30T01:25:27.757Z,14.07
2023-04-30T01:28:09.578Z,14.50
2023-04-30T01:30:37.089Z,14.53
2023-04-30T01:33:03.888Z,13.80
2023-04-30T01:35:50.170Z,14.37
2023-04-30T01:38:26.948Z,13.77
2023-04-30T01:41:09.197Z,15.70
2023-04-30T01:43:54.642Z,14.43
2023-04-30T01:46:30.757Z,14.80
2023-04-30T01:49:28.836Z,15.83
2023-04-30T01:52:32.135Z,15.40
2023-04-30T01:55:14.017Z,15.37
2023-04-30T01:57:48.487Z,15.27
2023-04-30T02:00:17.782Z,15.30
2023-04-30T02:02:44.315Z,16.07
2023-04-30T02:05:10.833Z,15.97
2023-04-30T02:07:40.685Z,15.70
2023-04-30T02:10:08.665Z,15.70
2023-04-30T02:12:35.586Z,16.50
2023-04-30T02:15:03.455Z,16.10
2023-04-30T02:17:29.925Z,17.03
2023-04-30T02:19:56.577Z,16.67
2023-04-30T02:22:23.109Z,16.57
2023-04-30T02:24:49.992Z,16.20
2023-04-30T02:27:16.426Z,15.20
2023-04-30T02:29:42.929Z,16.77
2023-04-30T02:32:09.419Z,16.20
2023-04-30T02:34:35.912Z,17.03
2023-04-30T02:37:03.292Z,16.60
2023-04-30T02:39:29.729Z,16.93
2023-04-30T02:41:56.193Z,16.90
2023-04-30T02:44:22.662Z,16.40
2023-04-30T02:46:49.136Z,16.13
2023-04-30T02:49:15.812Z,18.10
2023-04-30T02:51:42.439Z,18.13
2023-04-30T02:54:09.112Z,19.17
2023-04-30T02:56:35.651Z,19.73
2023-04-30T02:59:02.224Z,20.40
2023-04-30T03:01:28.835Z,20.20
2023-04-30T03:03:55.353Z,21.13
2023-04-30T03:06:21.919Z,20.50
2023-04-30T03:08:48.574Z,19.70
2023-04-30T03:11:15.041Z,21.60
2023-04-30T03:13:41.496Z,21.27
2023-04-30T03:16:08.160Z,20.37
2023-04-30T03:18:34.683Z,21.27
2023-04-30T03:21:01.541Z,21.17
2023-04-30T03:23:28.875Z,21.13
2023-04-30T03:25:55.373Z,20.87
2023-04-30T03:28:22.524Z,20.80
2023-04-30T03:30:48.965Z,20.93
2023-04-30T03:33:15.504Z,21.57
2023-04-30T03:35:42.183Z,20.83
2023-04-30T03:38:08.851Z,21.90
2023-04-30T03:40:35.457Z,21.17
2023-04-30T03:43:02.321Z,21.83
2023-04-30T03:45:29.038Z,21.90
2023-04-30T03:47:55.846Z,20.97
2023-04-30T03:50:22.603Z,22.67
2023-04-30T03:52:49.056Z,21.57
2023-04-30T03:55:16.586Z,22.80
2023-04-30T03:57:43.429Z,21.23
2023-04-30T04:00:11.019Z,22.23
2023-04-30T04:02:42.450Z,21.67
2023-04-30T04:05:11.073Z,22.83
2023-04-30T04:07:38.061Z,22.60
2023-04-30T04:10:04.862Z,22.50
2023-04-30T04:12:32.088Z,22.97
2023-04-30T04:14:58.535Z,23.27
2023-04-30T04:17:25.301Z,21.83
2023-04-30T04:19:52.104Z,22.73
2023-04-30T04:22:19.229Z,23.33
2023-04-30T04:24:47.978Z,23.90
2023-04-30T04:27:20.374Z,22.20
2023-04-30T04:29:47.897Z,23.43
2023-04-30T04:32:14.702Z,23.97
2023-04-30T04:34:43.611Z,23.13
2023-04-30T04:37:10.089Z,22.83
2023-04-30T04:39:37.308Z,22.90
2023-04-30T04:42:04.965Z,24.10
2023-04-30T04:44:32.343Z,23.10
2023-04-30T04:46:59.060Z,24.17
2023-04-30T04:49:25.685Z,24.00
2023-04-30T04:51:52.250Z,22.90
2023-04-30T04:54:18.825Z,22.57
2023-04-30T04:56:45.457Z,22.53
2023-04-30T04:59:12.266Z,22.33
2023-04-30T05:01:38.921Z,23.67
2023-04-30T05:04:05.578Z,22.07
2023-04-30T05:06:32.284Z,23.50
2023-04-30T05:08:59.568Z,22.90
2023-04-30T05:11:26.044Z,22.30
2023-04-30T05:13:52.481Z,21.07
2023-04-30T05:16:19.101Z,22.20
2023-04-30T05:18:45.608Z,22.17
2023-04-30T05:21:12.053Z,21.33
2023-04-30T05:23:38.539Z,21.00
2023-04-30T05:26:05.354Z,22.03
2023-04-30T05:28:31.836Z,21.53
2023-04-30T05:30:58.277Z,21.60
2023-04-30T05:33:24.797Z,20.50
2023-04-30T05:35:51.230Z,20.07
2023-04-30T05:38:17.762Z,19.87
2023-04-30T05:40:44.166Z,20.53
2023-04-30T05:43:10.704Z,20.03
2023-04-30T05:45:37.145Z,19.87
2023-04-30T05:48:04.173Z,20.70
2023-04-30T05:50:30.695Z,19.17
2023-04-30T05:52:57.173Z,19.67
2023-04-30T05:55:23.615Z,18.90
2023-04-30T05:57:50.099Z,17.30
2023-04-30T06:00:16.799Z,17.30
2023-04-30T06:02:43.443Z,18.03
2023-04-30T06:05:10.069Z,17.53
2023-04-30T06:07:36.542Z,17.80
2023-04-30T06:10:03.221Z,17.70
2023-04-30T06:12:29.850Z,16.93
2023-04-30T06:14:56.389Z,17.73
2023-04-30T06:17:22.875Z,17.40
2023-04-30T06:19:49.375Z,17.40
2023-04-30T06:22:15.786Z,16.63
2023-04-30T06:24:42.299Z,9.80
2023-04-30T06:27:08.950Z,15.63
2023-04-30T06:29:35.419Z,14.73
2023-04-30T06:32:01.897Z,13.10
2023-04-30T06:34:28.438Z,14.93
2023-04-30T06:36:54.876Z,14.67
2023-04-30T06:39:21.305Z,14.70
2023-04-30T06:41:47.991Z,14.67
2023-04-30T06:44:15.026Z,14.03
2023-04-30T06:46:41.508Z,13.53
2023-04-30T06:49:07.998Z,13.50
2023-04-30T06:51:34.434Z,14.13
2023-04-30T06:54:00.913Z,13.93
2023-04-30T06:56:27.393Z,13.10
2023-04-30T06:58:53.869Z,12.10
2023-04-30T07:01:20.507Z,11.83
2023-04-30T07:03:47.306Z,11.80
2023-04-30T07:06:14.323Z,11.50
2023-04-30T07:08:41.309Z,10.83
2023-04-30T07:11:07.975Z,11.07
2023-04-30T07:13:34.688Z,10.43
2023-04-30T07:16:01.219Z,10.90
2023-04-30T07:18:27.781Z,10.47
2023-04-30T07:20:54.994Z,10.20
2023-04-30T07:23:21.750Z,8.63
2023-04-30T07:25:48.518Z,8.23
2023-04-30T07:28:14.984Z,8.07
2023-04-30T07:30:41.648Z,9.97
2023-04-30T07:33:09.675Z,9.03
2023-04-30T07:35:36.543Z,9.73
2023-04-30T07:38:03.425Z,8.90
2023-04-30T07:43:01.225Z,8.80
2023-04-30T07:45:27.681Z,8.83
2023-04-30T07:47:54.208Z,9.63
2023-04-30T07:50:20.735Z,8.60
2023-04-30T07:52:49.405Z,9.47
2023-04-30T07:55:16.238Z,9.00
2023-04-30T07:57:42.675Z,9.50
2023-04-30T08:00:09.508Z,7.90
2023-04-30T08:02:44.075Z,7.17
2023-04-30T08:05:11.231Z,7.83
2023-04-30T08:07:37.799Z,9.10
2023-04-30T08:10:04.619Z,8.53
2023-04-30T08:12:31.286Z,7.30
2023-04-30T08:15:03.163Z,8.23
2023-04-30T08:17:29.734Z,8.00
2023-04-30T08:19:56.505Z,7.70
2023-04-30T08:22:23.553Z,7.53
2023-04-30T08:24:50.304Z,6.97
2023-04-30T08:27:16.814Z,7.20
2023-04-30T08:29:43.257Z,7.37
2023-04-30T08:32:09.944Z,7.90
2023-04-30T08:34:36.587Z,7.73
2023-04-30T08:37:03.095Z,7.97
2023-04-30T08:39:29.540Z,7.90
2023-04-30T08:41:56.747Z,8.07
2023-04-30T08:44:24.043Z,7.97
2023-04-30T08:46:54.746Z,7.07
2023-04-30T08:49:25.442Z,6.97
2023-04-30T08:51:52.814Z,6.93
2023-04-30T08:54:22.569Z,7.03
2023-04-30T08:56:52.178Z,6.90
2023-04-30T08:59:19.214Z,6.50
2023-04-30T09:01:45.901Z,5.83
2023-04-30T09:04:12.502Z,6.47
2023-04-30T09:06:39.039Z,5.50
2023-04-30T09:09:13.943Z,5.90
2023-04-30T09:11:40.883Z,5.40
2023-04-30T09:14:08.135Z,5.70
2023-04-30T09:16:49.253Z,5.27
2023-04-30T09:19:29.486Z,4.90
2023-04-30T09:21:56.500Z,4.97
2023-04-30T09:24:23.952Z,5.93
2023-04-30T09:26:51.415Z,4.60
2023-04-30T09:29:17.890Z,3.80
2023-04-30T09:31:47.097Z,4.90
2023-04-30T09:34:14.500Z,4.20
2023-04-30T09:36:57.036Z,3.33
2023-04-30T09:39:24.018Z,5.03
2023-04-30T09:41:51.567Z,4.37
2023-04-30T09:44:32.233Z,4.47
2023-04-30T09:46:59.290Z,5.10
2023-04-30T09:49:27.312Z,5.33
2023-04-30T09:51:58.475Z,4.97
2023-04-30T09:54:32.223Z,4.50
2023-04-30T09:57:01.535Z,4.30
2023-04-30T09:59:39.715Z,4.87
2023-04-30T10:02:08.254Z,5.10
2023-04-30T10:04:39.565Z,5.20
2023-04-30T10:07:10.409Z,3.87
2023-04-30T10:09:44.712Z,3.53
2023-04-30T10:12:16.167Z,4.57
2023-04-30T10:14:51.944Z,4.80
2023-04-30T10:17:20.739Z,4.83
2023-04-30T10:19:50.814Z,4.37
2023-04-30T10:22:20.477Z,4.47
2023-04-30T10:24:48.514Z,3.50
2023-04-30T10:27:15.163Z,5.47
2023-04-30T10:29:42.715Z,5.30
2023-04-30T10:32:13.008Z,5.53
2023-04-30T10:34:57.467Z,6.03
2023-04-30T10:37:26.837Z,5.37
2023-04-30T10:39:53.957Z,5.13
2023-04-30T10:42:20.670Z,5.50
2023-04-30T10:44:47.423Z,5.03
2023-04-30T10:47:13.944Z,4.93
2023-04-30T10:49:48.088Z,4.60
2023-04-30T10:52:14.574Z,5.20
2023-04-30T10:54:49.913Z,4.53
2023-04-30T10:57:20.249Z,4.23
2023-04-30T11:00:14.978Z,3.70
2023-04-30T11:02:43.822Z,3.37
2023-04-30T11:05:11.945Z,3.97
2023-04-30T11:07:56.526Z,4.10
2023-04-30T11:10:32.036Z,4.10
2023-04-30T11:13:03.243Z,3.43
2023-04-30T11:15:45.098Z,3.80
2023-04-30T11:18:13.786Z,3.90
2023-04-30T11:20:42.089Z,3.10
2023-04-30T11:23:11.185Z,3.23
2023-04-30T11:25:43.023Z,4.13
2023-04-30T11:28:24.054Z,3.13
2023-04-30T11:30:58.044Z,3.33
2023-04-30T11:33:29.798Z,3.70
2023-04-30T11:35:57.648Z,3.33
2023-04-30T11:38:33.830Z,3.90
2023-04-30T11:41:01.470Z,3.40
2023-04-30T11:43:31.234Z,3.40
2023-04-30T11:46:05.794Z,3.30
2023-04-30T11:48:34.214Z,2.93
2023-04-30T11:51:04.397Z,2.90
2023-04-30T11:53:31.069Z,3.70
2023-04-30T11:55:57.521Z,3.20
2023-04-30T11:58:23.934Z,3.00
2023-04-30T12:00:52.370Z,2.97
2023-04-30T12:03:19.146Z,3.13
2023-04-30T12:05:46.567Z,2.80
2023-04-30T12:08:13.155Z,3.13
2023-04-30T12:10:40.760Z,2.43
2023-04-30T12:13:07.238Z,2.30
2023-04-30T12:15:34.301Z,2.30
2023-04-30T12:18:12.111Z,1.80
2023-04-30T12:20:40.090Z,2.07
2023-04-30T12:23:08.017Z,2.03
2023-04-30T12:25:42.430Z,2.30
2023-04-30T12:28:10.168Z,1.93
2023-04-30T12:30:36.759Z,2.30
2023-04-30T12:33:03.679Z,2.20
2023-04-30T12:35:32.449Z,2.07
2023-04-30T12:38:04.389Z,2.20
2023-04-30T12:40:30.917Z,2.33
2023-04-30T12:43:02.832Z,2.10
2023-04-30T12:45:52.491Z,2.20
2023-04-30T12:48:24.254Z,2.43
2023-04-30T12:51:01.678Z,1.70
2023-04-30T12:53:29.547Z,2.20
2023-04-30T12:56:15.539Z,1.70
2023-04-30T12:58:49.497Z,1.67
2023-04-30T13:01:24.478Z,2.03
2023-04-30T13:03:52.778Z,1.90
2023-04-30T13:06:21.476Z,2.03
2023-04-30T13:08:58.106Z,1.90
2023-04-30T13:11:26.748Z,1.80
2023-04-30T13:13:55.465Z,2.17
2023-04-30T13:16:22.999Z,2.20
2023-04-30T13:18:49.507Z,2.43
2023-04-30T13:21:15.919Z,2.40
2023-04-30T13:23:51.805Z,2.57
2023-04-30T13:26:20.472Z,2.40
2023-04-30T13:28:47.102Z,1.60
2023-04-30T13:31:13.561Z,2.30
2023-04-30T13:33:40.066Z,2.00
2023-04-30T13:36:06.796Z,2.10
2023-04-30T13:38:33.585Z,2.73
2023-04-30T13:41:00.000Z,1.80
2023-04-30T13:43:26.519Z,1.80
2023-04-30T13:45:53.059Z,1.80
2023-04-30T13:48:19.550Z,2.03
2023-04-30T13:50:46.010Z,1.90
2023-04-30T13:53:12.599Z,1.70
2023-04-30T13:55:39.023Z,1.87
2023-04-30T13:58:05.538Z,2.40
2023-04-30T14:00:32.029Z,2.30
2023-04-30T14:02:58.715Z,1.90
2023-04-30T14:05:25.348Z,2.00
2023-04-30T14:07:51.854Z,2.03
2023-04-30T14:10:18.385Z,2.20
2023-04-30T14:12:44.891Z,2.03
2023-04-30T14:15:11.448Z,2.03
2023-04-30T14:17:38.585Z,1.63
2023-04-30T14:20:05.865Z,1.67
2023-04-30T14:22:34.533Z,1.80
2023-04-30T14:25:01.163Z,1.67
2023-04-30T14:27:27.606Z,1.40
2023-04-30T14:29:54.438Z,1.80
2023-04-30T14:32:21.200Z,1.70
2023-04-30T14:34:47.805Z,1.83
2023-04-30T14:37:15.488Z,2.30
2023-04-30T14:39:42.033Z,10.53
2023-04-30T14:42:08.851Z,4.63
2023-04-30T14:44:35.803Z,2.70
2023-04-30T14:47:03.104Z,1.97
2023-04-30T14:49:29.677Z,1.87
2023-04-30T14:51:56.170Z,1.60
2023-04-30T14:54:22.929Z,1.93
2023-04-30T14:56:49.830Z,1.80
2023-04-30T14:59:16.304Z,1.70
2023-04-30T15:01:42.772Z,1.57
2023-04-30T15:04:09.492Z,1.80
2023-04-30T15:06:36.167Z,1.73
2023-04-30T15:09:04.260Z,2.20
2023-04-30T15:11:30.820Z,1.90
2023-04-30T15:13:57.290Z,1.80
2023-04-30T15:16:24.199Z,1.93
2023-04-30T15:18:50.852Z,1.90
2023-04-30T15:21:17.309Z,1.80
2023-04-30T15:23:44.190Z,1.60
2023-04-30T15:26:11.054Z,1.87
2023-04-30T15:28:37.717Z,1.77
2023-04-30T15:31:06.535Z,1.60
2023-04-30T15:33:34.482Z,1.37
2023-04-30T15:36:01.437Z,1.50
2023-04-30T15:38:27.939Z,1.60
2023-04-30T15:40:54.371Z,1.63
2023-04-30T15:43:21.386Z,1.70
2023-04-30T15:45:48.387Z,1.90
2023-04-30T15:48:15.002Z,2.40
2023-04-30T15:50:41.437Z,2.70
2023-04-30T15:53:07.912Z,1.73
2023-04-30T15:55:34.352Z,1.60
2023-04-30T15:58:01.003Z,1.40
2023-04-30T16:00:29.190Z,1.70
2023-04-30T16:02:55.846Z,1.80
2023-04-30T16:05:22.443Z,2.60
2023-04-30T16:07:49.557Z,1.90
2023-04-30T16:10:16.306Z,1.60
2023-04-30T16:12:42.809Z,2.30
2023-04-30T16:15:10.737Z,2.33
2023-04-30T16:17:37.301Z,1.77
2023-04-30T16:20:04.127Z,2.30
2023-04-30T16:22:30.686Z,2.20
2023-04-30T16:24:57.338Z,1.83
2023-04-30T16:27:24.152Z,1.80
2023-04-30T16:29:50.719Z,1.77
2023-04-30T16:32:17.625Z,1.73
2023-04-30T16:34:44.066Z,2.10
2023-04-30T16:37:10.647Z,1.50
2023-04-30T16:39:37.143Z,1.60
2023-04-30T16:42:03.591Z,1.43
2023-04-30T16:44:30.147Z,1.70
2023-04-30T16:46:59.386Z,1.70
2023-04-30T16:49:25.923Z,2.13
2023-04-30T16:51:52.391Z,1.40
2023-04-30T16:54:18.831Z,1.67
2023-04-30T16:56:45.398Z,1.60
2023-04-30T16:59:11.913Z,1.40
2023-04-30T17:01:38.473Z,1.80
2023-04-30T17:04:05.079Z,1.60
2023-04-30T17:06:33.340Z,1.70
2023-04-30T17:08:59.912Z,1.53
2023-04-30T17:11:26.696Z,1.87
2023-04-30T17:13:55.083Z,1.70
2023-04-30T17:16:22.055Z,1.63
2023-04-30T17:18:49.077Z,1.43
2023-04-30T17:21:15.925Z,1.80
2023-04-30T17:23:42.680Z,1.60
2023-04-30T17:26:09.583Z,1.50
2023-04-30T17:28:37.328Z,1.50
2023-04-30T17:31:06.760Z,1.50
2023-04-30T17:33:33.675Z,1.73
2023-04-30T17:36:00.127Z,1.33
2023-04-30T17:38:26.903Z,1.30
2023-04-30T17:40:54.178Z,1.50
2023-04-30T17:43:20.710Z,1.30
2023-04-30T17:45:47.274Z,1.20
2023-04-30T17:48:13.908Z,1.30
2023-04-30T17:50:41.135Z,1.30
2023-04-30T17:53:07.578Z,1.20
2023-04-30T17:55:34.030Z,1.30
2023-04-30T17:58:00.471Z,1.10
2023-04-30T18:00:26.971Z,1.40
2023-04-30T18:02:53.427Z,1.40
2023-04-30T18:05:20.167Z,1.50
2023-04-30T18:07:47.585Z,1.30
2023-04-30T18:10:14.188Z,1.30
2023-04-30T18:12:41.912Z,1.53
2023-04-30T18:15:08.855Z,1.53
2023-04-30T18:17:37.219Z,1.60
2023-04-30T18:20:04.679Z,2.00
2023-04-30T18:22:31.945Z,2.07
2023-04-30T18:24:58.454Z,2.13
2023-04-30T18:27:25.011Z,2.03
2023-04-30T18:29:52.540Z,2.50
2023-04-30T18:32:19.327Z,2.83
2023-04-30T18:34:46.163Z,3.50
2023-04-30T18:37:12.623Z,3.80
2023-04-30T18:39:39.062Z,4.23
2023-04-30T18:42:05.503Z,4.50
2023-04-30T18:44:32.141Z,4.33
2023-04-30T18:46:58.891Z,4.33
2023-04-30T18:49:25.322Z,3.80
2023-04-30T18:51:51.817Z,3.60
2023-04-30T18:54:18.423Z,3.77
2023-04-30T18:56:45.191Z,4.07
2023-04-30T18:59:11.642Z,4.50
2023-04-30T19:01:38.317Z,4.97
2023-04-30T19:04:04.823Z,5.03
2023-04-30T19:06:33.353Z,5.93
2023-04-30T19:09:00.010Z,5.80
2023-04-30T19:11:27.049Z,6.00
2023-04-30T19:13:53.712Z,6.70
2023-04-30T19:16:20.174Z,6.33
2023-04-30T19:18:46.765Z,6.17
2023-04-30T19:21:14.761Z,5.50
2023-04-30T19:23:41.311Z,6.10
2023-04-30T19:26:07.766Z,5.83
2023-04-30T19:28:34.169Z,5.97
2023-04-30T19:31:00.680Z,6.13
2023-04-30T19:33:28.254Z,7.13
2023-04-30T19:35:54.992Z,7.20
2023-04-30T19:38:21.753Z,6.73
2023-04-30T19:40:53.130Z,5.27
2023-04-30T19:43:20.407Z,4.87
2023-04-30T19:45:50.353Z,5.70
2023-04-30T19:48:17.233Z,7.03
2023-04-30T19:50:47.445Z,8.40
2023-04-30T19:53:16.235Z,7.03
2023-04-30T19:55:43.798Z,6.60
2023-04-30T19:58:10.400Z,5.47
2023-04-30T20:00:41.362Z,5.00
2023-04-30T20:03:08.106Z,4.40
2023-04-30T20:05:39.522Z,4.40
2023-04-30T20:08:07.507Z,4.93
2023-04-30T20:10:36.182Z,5.43
2023-04-30T20:13:03.750Z,5.60
2023-04-30T20:15:30.631Z,5.40
2023-04-30T20:17:58.281Z,5.27
2023-04-30T20:20:25.107Z,4.60
2023-04-30T20:22:54.037Z,4.43
2023-04-30T20:25:22.271Z,4.53
2023-04-30T20:27:49.221Z,4.97
2023-04-30T20:30:16.231Z,5.67
2023-04-30T20:32:42.962Z,5.77
2023-04-30T20:35:09.656Z,6.00
2023-04-30T20:37:37.209Z,4.80
2023-04-30T20:40:04.359Z,4.40
2023-04-30T20:42:30.870Z,4.60
2023-04-30T20:44:57.369Z,4.80
2023-04-30T20:47:23.923Z,5.57
2023-04-30T20:49:51.073Z,6.37
2023-04-30T20:52:18.640Z,6.40
2023-04-30T20:54:45.863Z,6.23
2023-04-30T20:57:12.515Z,5.80
2023-04-30T20:59:38.998Z,6.80
2023-04-30T21:02:05.744Z,6.30
2023-04-30T21:04:32.281Z,6.43
2023-04-30T21:06:58.787Z,6.30
2023-04-30T21:09:25.261Z,6.80
2023-04-30T21:11:51.822Z,7.20
2023-04-30T21:14:18.803Z,7.30
2023-04-30T21:16:45.374Z,7.60
2023-04-30T21:19:11.928Z,7.93
2023-04-30T21:21:38.395Z,7.50
2023-04-30T21:24:05.350Z,5.43
2023-04-30T21:26:32.048Z,5.20
2023-04-30T21:28:58.818Z,5.83
2023-04-30T21:31:25.744Z,5.07
2023-04-30T21:33:52.320Z,4.27
2023-04-30T21:36:18.952Z,4.33
2023-04-30T21:38:45.392Z,4.20
2023-04-30T21:41:16.821Z,3.90
2023-04-30T21:43:43.932Z,3.57
2023-04-30T21:46:10.866Z,3.23
2023-04-30T21:48:40.567Z,3.03
2023-04-30T21:51:17.081Z,3.63
2023-04-30T21:53:45.410Z,3.00
2023-04-30T21:56:12.395Z,3.67
2023-04-30T21:58:39.371Z,3.23
2023-04-30T22:01:05.919Z,3.80
2023-04-30T22:03:33.045Z,5.40
2023-04-30T22:05:59.703Z,5.50
2023-04-30T22:08:26.479Z,4.40
2023-04-30T22:10:58.791Z,4.20
2023-04-30T22:13:26.271Z,3.50
2023-04-30T22:15:52.858Z,3.20
2023-04-30T22:18:20.260Z,3.50
2023-04-30T22:20:49.025Z,3.73
2023-04-30T22:23:16.644Z,3.93
2023-04-30T22:25:43.319Z,4.03
2023-04-30T22:28:10.186Z,3.90
2023-04-30T22:30:37.620Z,3.17
2023-04-30T22:33:04.380Z,3.40
2023-04-30T22:35:32.699Z,3.33
2023-04-30T22:38:00.466Z,3.70
2023-04-30T22:40:27.229Z,4.10
2023-04-30T22:42:54.072Z,3.53
2023-04-30T22:45:20.674Z,4.17
2023-04-30T22:47:47.496Z,3.93
2023-04-30T22:50:13.937Z,4.23
2023-04-30T22:52:40.435Z,3.83
2023-04-30T22:55:07.658Z,3.70
2023-04-30T22:57:34.128Z,3.40
2023-04-30T23:00:00.848Z,3.80
2023-04-30T23:02:28.652Z,3.53
2023-04-30T23:04:55.271Z,3.60
2023-04-30T23:07:21.818Z,4.13
2023-04-30T23:09:48.334Z,4.57
2023-04-30T23:12:14.784Z,4.60
2023-04-30T23:14:41.341Z,4.70
2023-04-30T23:17:07.843Z,5.03
2023-04-30T23:19:34.362Z,5.00
2023-04-30T23:22:00.910Z,4.60
2023-04-30T23:24:27.327Z,5.00
2023-04-30T23:26:55.205Z,4.60
2023-04-30T23:29:21.649Z,4.27
2023-04-30T23:31:48.197Z,4.67
2023-04-30T23:34:14.648Z,5.07
2023-04-30T23:36:41.159Z,4.80
2023-04-30T23:39:07.945Z,5.00
2023-04-30T23:41:34.394Z,4.97
2023-04-30T23:44:00.859Z,5.43
2023-04-30T23:46:27.459Z,5.40
2023-04-30T23:48:54.034Z,5.70
2023-04-30T23:51:22.423Z,5.23
2023-04-30T23:53:48.998Z,5.60
2023-04-30T23:56:15.434Z,6.03
2023-04-30T23:58:41.984Z,5.33
